Terminal Aerodrome Forecast
Issued by NWS Cleveland, OH

Home | Current Version | Previous Version | Text Only | Print | Product List | Glossary Off
Versions: 1 2 3 4 5 6 7 8 9 10 11 12 13 14 15

000
FTUS41 KCLE 262118 AAB
TAFTOL
TAF AMD
KTOL 262118Z 2621/2718 20011KT P6SM VCSH SCT050 BKN150
     FM270100 19004KT P6SM SCT060 BKN150
     FM270900 20005KT 4SM BR SCT090 BKN200
     FM271300 20006KT P6SM BKN250=

USA.gov is the U.S. government's official web portal to all federal, state and local government web resources and services.